createdAt,value
2016-06-06T08:40:06.292Z,2.72
2016-06-06T08:41:06.295Z,2.92
2016-06-06T08:42:06.314Z,2.51
2016-06-06T08:43:06.333Z,2.32
2016-06-06T08:44:06.460Z,1.92
2016-06-06T08:45:06.228Z,2.01
2016-06-06T08:46:06.355Z,1.51
2016-06-06T08:47:06.358Z,1.51
2016-06-06T08:48:06.377Z,2.02
2016-06-06T08:49:06.380Z,2.12
2016-06-06T08:50:06.398Z,2.22
2016-06-06T08:51:06.401Z,2.12
2016-06-06T08:52:06.419Z,1.92
2016-06-06T08:53:06.437Z,1.92
2016-06-06T08:54:06.440Z,1.92
2016-06-06T08:55:06.443Z,2.12
2016-06-06T08:56:06.476Z,2.22
2016-06-06T08:57:06.479Z,2.12
2016-06-06T08:58:06.481Z,2.12
2016-06-06T08:59:07.048Z,2.12
2016-06-06T09:00:06.456Z,2.01
2016-06-06T09:01:06.521Z,2.22
2016-06-06T09:02:06.524Z,2.02
2016-06-06T09:03:06.542Z,1.51
2016-06-06T09:04:06.545Z,1.62
2016-06-06T09:05:06.564Z,1.52
2016-06-06T09:06:06.566Z,1.31
2016-06-06T09:07:06.569Z,1.32
2016-06-06T09:08:06.586Z,1.82
2016-06-06T09:09:06.590Z,2.22
2016-06-06T09:10:06.608Z,2.82
2016-06-06T09:11:06.626Z,2.82
2016-06-06T09:12:06.629Z,3.02
2016-06-06T09:13:06.647Z,3.12
2016-06-06T09:14:06.666Z,2.62
2016-06-06T09:15:06.715Z,2.52
2016-06-06T09:16:06.671Z,2.52
2016-06-06T09:17:06.674Z,2.22
2016-06-06T09:18:06.692Z,2.42
2016-06-06T09:19:06.694Z,2.42
2016-06-06T09:20:06.697Z,2.72
2016-06-06T09:21:06.716Z,2.42
2016-06-06T09:22:06.718Z,2.52
2016-06-06T09:23:06.721Z,2.32
2016-06-06T09:24:06.740Z,2.42
2016-06-06T09:25:06.742Z,2.62
2016-06-06T09:26:06.745Z,3.12
2016-06-06T09:27:06.763Z,3.72
2016-06-06T09:28:06.782Z,4.13
2016-06-06T09:29:07.393Z,4.12
2016-06-06T09:30:06.881Z,4.12
2016-06-06T09:31:06.633Z,4.12
2016-06-06T09:32:06.807Z,4.93
2016-06-06T09:33:06.810Z,5.32
2016-06-06T09:34:06.813Z,5.92
2016-06-06T09:35:06.816Z,6.71
2016-06-06T09:36:06.818Z,7.1
2016-06-06T09:37:06.946Z,8.59
2016-06-06T09:38:06.839Z,9.18
2016-06-06T09:39:06.842Z,10.36
2016-06-06T09:40:06.845Z,11.33
2016-06-06T09:41:06.864Z,11.62
2016-06-06T09:42:06.881Z,12.6
2016-06-06T09:43:06.884Z,13.28
2016-06-06T09:44:07.168Z,14.35
2016-06-06T09:45:06.890Z,15.42
2016-06-06T09:46:06.892Z,15.51
2016-06-06T09:47:06.911Z,16.28
2016-06-06T09:48:06.913Z,16.47
2016-06-06T09:49:06.916Z,17.35
2016-06-06T09:50:06.918Z,18.13
2016-06-06T09:51:06.952Z,18.91
2016-06-06T09:52:06.940Z,18.8
2016-06-06T09:53:06.943Z,19.48
2016-06-06T09:54:06.992Z,20.06
2016-06-06T09:55:06.963Z,20.75
2016-06-06T09:56:06.982Z,21.12
2016-06-06T09:57:06.985Z,21.51
2016-06-06T09:58:06.987Z,22.09
2016-06-06T09:59:06.990Z,22.56
2016-06-06T10:00:06.993Z,23.05
2016-06-06T10:01:07.011Z,23.63
2016-06-06T10:02:07.013Z,24.02
2016-06-06T10:03:07.016Z,24.1
2016-06-06T10:04:07.018Z,24.59
2016-06-06T10:05:07.037Z,25.17
2016-06-06T10:06:07.040Z,25.55
2016-06-06T10:07:07.043Z,26.33
2016-06-06T10:08:07.045Z,26.61
2016-06-06T10:09:07.048Z,26.03
2016-06-06T10:10:07.066Z,25.73
2016-06-06T10:11:07.070Z,25.44
2016-06-06T10:12:07.228Z,25.93
2016-06-06T10:13:07.089Z,26.12
2016-06-06T10:14:07.328Z,25.83
2016-06-06T10:15:07.095Z,25.63
2016-06-06T10:16:07.098Z,25.93
2016-06-06T10:17:07.100Z,25.93
2016-06-06T10:18:07.103Z,26.12
2016-06-06T10:19:07.122Z,25.83
2016-06-06T10:20:07.125Z,26.12
2016-06-06T10:21:07.127Z,26.31
2016-06-06T10:22:07.146Z,26.6
2016-06-06T10:23:07.149Z,26.98
2016-06-06T10:24:07.151Z,27.17
2016-06-06T10:25:07.169Z,27.37
2016-06-06T10:26:07.157Z,27.08
2016-06-06T10:27:07.159Z,26.49
2016-06-06T10:28:07.176Z,26.78
2016-06-06T10:29:07.180Z,26.7
2016-06-06T10:30:07.729Z,26.22
2016-06-06T10:31:07.182Z,26.03
2016-06-06T10:32:07.201Z,25.93
2016-06-06T10:33:07.203Z,25.72
2016-06-06T10:34:07.206Z,26.11
2016-06-06T10:35:07.209Z,26.01
2016-06-06T10:36:07.227Z,26.2
2016-06-06T10:37:07.229Z,26.59
2016-06-06T10:38:07.232Z,27.37
2016-06-06T10:39:07.234Z,27.94
2016-06-06T10:40:07.238Z,28.53
2016-06-06T10:41:07.256Z,28.14
2016-06-06T10:42:07.243Z,28.22
2016-06-06T10:43:07.261Z,28.2
2016-06-06T10:44:07.264Z,28
2016-06-06T10:45:07.267Z,28.49
2016-06-06T10:46:07.270Z,28.36
2016-06-06T10:47:07.288Z,29.04
2016-06-06T10:48:07.291Z,29.13
2016-06-06T10:49:07.294Z,29.13
2016-06-06T10:50:07.296Z,28.34
2016-06-06T10:51:07.299Z,28.74
2016-06-06T10:52:07.317Z,28.44
2016-06-06T10:53:07.336Z,28.34
2016-06-06T10:54:07.182Z,27.76
2016-06-06T10:55:07.325Z,27.65
2016-06-06T10:56:07.328Z,28.33
2016-06-06T10:57:07.346Z,28.8
2016-06-06T10:58:07.349Z,28.7
2016-06-06T10:59:07.351Z,28.51
2016-06-06T11:00:07.979Z,29.19
2016-06-06T11:01:07.373Z,29.78
2016-06-06T11:02:07.376Z,30.44
2016-06-06T11:03:07.378Z,30.33
2016-06-06T11:04:07.381Z,30.52
2016-06-06T11:05:07.384Z,31.66
2016-06-06T11:06:07.387Z,32.62
2016-06-06T11:07:07.390Z,32.6
2016-06-06T11:08:07.407Z,32.99
2016-06-06T11:09:07.409Z,33.09
2016-06-06T11:10:07.412Z,34.33
2016-06-06T11:11:07.415Z,35.21
2016-06-06T11:12:07.418Z,34.02
2016-06-06T11:13:07.420Z,34.22
2016-06-06T11:14:07.454Z,34.14
2016-06-06T11:15:07.473Z,33.94
2016-06-06T11:16:07.444Z,33.46
2016-06-06T11:17:07.447Z,33.17
2016-06-06T11:18:07.464Z,33.36
2016-06-06T11:19:07.437Z,32.79
2016-06-06T11:20:07.424Z,32.7
2016-06-06T11:21:07.427Z,33.09
2016-06-06T11:22:07.430Z,32.89
2016-06-06T11:23:07.447Z,33.28
2016-06-06T11:24:07.450Z,34.06
2016-06-06T11:25:07.453Z,33.96
2016-06-06T11:26:07.455Z,33.47
2016-06-06T11:27:07.458Z,33.09
2016-06-06T11:28:07.461Z,33.28
2016-06-06T11:29:07.479Z,33.47
2016-06-06T11:30:07.482Z,34.16
2016-06-06T11:31:07.485Z,34.25
2016-06-06T11:32:07.502Z,34.44
2016-06-06T11:33:07.349Z,34.74
2016-06-06T11:34:07.493Z,34.93
2016-06-06T11:35:07.510Z,35.13
2016-06-06T11:36:07.513Z,35.41
2016-06-06T11:37:07.516Z,36.56
2016-06-06T11:38:07.535Z,35.3
2016-06-06T11:39:07.490Z,35.69
2016-06-06T11:40:07.509Z,35.77
2016-06-06T11:41:07.495Z,35.67
2016-06-06T11:42:07.514Z,35.57
2016-06-06T11:43:07.517Z,35.86
2016-06-06T11:44:07.582Z,35.28
2016-06-06T11:45:07.944Z,35.96
2016-06-06T11:46:07.525Z,36.46
2016-06-06T11:47:07.543Z,36.08
2016-06-06T11:48:07.545Z,35.98
2016-06-06T11:49:07.392Z,35.86
2016-06-06T11:50:07.551Z,36.06
2016-06-06T11:51:07.554Z,36.74
2016-06-06T11:52:07.556Z,37.01
2016-06-06T11:53:07.559Z,36.62
2016-06-06T11:54:07.562Z,36.24
2016-06-06T11:55:07.580Z,35.96
2016-06-06T11:56:07.583Z,35.07
2016-06-06T11:57:07.586Z,34.2
2016-06-06T11:58:07.432Z,33.91
2016-06-06T11:59:07.607Z,34.11
2016-06-06T12:00:08.015Z,34.39
2016-06-06T12:01:07.613Z,32.94
2016-06-06T12:02:07.615Z,33.14
2016-06-06T12:03:07.617Z,34.11
2016-06-06T12:04:07.621Z,34.49
2016-06-06T12:05:07.624Z,34.01
2016-06-06T12:06:07.469Z,34.11
2016-06-06T12:07:07.643Z,34.3
2016-06-06T12:08:07.647Z,34.8
2016-06-06T12:10:57.124Z,35.93
2016-06-06T12:11:57.157Z,35.83
2016-06-06T12:12:57.410Z,35.83
2016-06-06T12:13:57.960Z,35.64
2016-06-06T12:14:57.353Z,35.44
2016-06-06T12:15:57.215Z,35.93
2016-06-06T12:16:57.218Z,36.6
2016-06-06T12:17:57.220Z,36.51
2016-06-06T12:18:57.223Z,36.51
2016-06-06T12:19:57.226Z,35.44
2016-06-06T12:20:57.244Z,34.96
2016-06-06T12:21:57.247Z,34.47
2016-06-06T12:22:57.250Z,34.09
2016-06-06T12:23:57.267Z,34.77
2016-06-06T12:24:57.255Z,35.27
2016-06-06T12:25:57.272Z,35.36
2016-06-06T12:26:57.260Z,35.36
2016-06-06T12:27:57.278Z,35.36
2016-06-06T12:28:57.827Z,34.99
2016-06-06T12:29:57.283Z,34.61
2016-06-06T12:30:57.286Z,34.97
2016-06-06T12:31:57.289Z,34.59
2016-06-06T12:32:57.292Z,34.39
2016-06-06T12:33:57.294Z,34.2
2016-06-06T12:34:57.296Z,34.97
2016-06-06T12:35:57.300Z,34.97
2016-06-06T12:36:57.318Z,33.33
2016-06-06T12:37:57.337Z,32.94
2016-06-06T12:38:57.323Z,32.84
2016-06-06T12:39:57.326Z,33.04
2016-06-06T12:40:57.376Z,34.69
2016-06-06T12:41:57.191Z,35.07
2016-06-06T12:42:57.334Z,34.2
2016-06-06T12:43:57.354Z,33.91
2016-06-06T12:44:57.356Z,34.2
2016-06-06T12:45:57.358Z,34.88
2016-06-06T12:46:57.361Z,34.7
2016-06-06T12:47:57.364Z,34.02
2016-06-06T12:48:57.226Z,33.34
2016-06-06T12:49:57.369Z,34.02
2016-06-06T12:50:57.387Z,34.3
2016-06-06T12:51:57.390Z,34.59
2016-06-06T12:52:57.392Z,33.33
2016-06-06T12:53:57.395Z,33.04
2016-06-06T12:54:57.398Z,32.84
2016-06-06T12:55:57.401Z,33.14
2016-06-06T12:56:57.403Z,32.94
2016-06-06T12:57:57.405Z,33.25
2016-06-06T12:58:57.424Z,32.84
2016-06-06T12:59:57.849Z,33.14
2016-06-06T13:00:57.430Z,33.34
2016-06-06T13:01:57.433Z,31.99
2016-06-06T13:02:57.435Z,31.89
2016-06-06T13:03:57.454Z,31.89
2016-06-06T13:04:57.456Z,32.57
2016-06-06T13:05:57.444Z,32.76
2016-06-06T13:06:57.446Z,33.06
2016-06-06T13:07:57.464Z,32.47
2016-06-06T13:08:57.311Z,32.67
2016-06-06T13:09:57.470Z,33.06
2016-06-06T13:10:57.473Z,33.15
2016-06-06T13:11:57.475Z,33.06
2016-06-06T13:12:57.478Z,32.76
2016-06-06T13:13:57.840Z,32.86
2016-06-06T13:14:57.484Z,32.86
2016-06-06T13:15:57.486Z,33.25
2016-06-06T13:16:57.504Z,33.33
2016-06-06T13:17:57.506Z,33.91
2016-06-06T13:18:57.509Z,34.69
2016-06-06T13:19:57.512Z,34.59
2016-06-06T13:20:57.515Z,35.75
2016-06-06T13:21:57.517Z,35.56
2016-06-06T13:22:57.520Z,34.89
2016-06-06T13:23:57.539Z,34.89
2016-06-06T13:24:57.525Z,33.92
2016-06-06T13:25:57.528Z,33.15
2016-06-06T13:26:57.547Z,33.06
2016-06-06T13:27:57.549Z,32.56
2016-06-06T13:28:57.552Z,32.07
2016-06-06T13:29:57.555Z,33.04
2016-06-06T13:30:57.557Z,32.94
2016-06-06T13:31:57.560Z,32.94
2016-06-06T13:32:57.563Z,32.84
2016-06-06T13:33:57.565Z,33.23
2016-06-06T13:34:57.568Z,34.02
2016-06-06T13:35:57.571Z,33.33
2016-06-06T13:36:57.589Z,32.84
2016-06-06T13:37:57.576Z,32.96
2016-06-06T13:38:57.594Z,31.79
2016-06-06T13:39:57.597Z,32.76
2016-06-06T13:40:57.599Z,32.67
2016-06-06T13:41:57.602Z,32.96
2016-06-06T13:42:57.604Z,32.87
2016-06-06T13:43:58.062Z,32.97
2016-06-06T13:44:57.611Z,32.97
2016-06-06T13:45:57.629Z,32.1
2016-06-06T13:46:57.631Z,31.91
2016-06-06T13:47:57.635Z,32.97
2016-06-06T13:48:57.637Z,32.87
2016-06-06T13:49:57.639Z,32.2
2016-06-06T13:50:57.642Z,32.47
2016-06-06T13:51:57.645Z,32.59
2016-06-06T13:52:57.648Z,31.7
2016-06-06T13:53:57.650Z,32.18
2016-06-06T13:54:57.653Z,31.6
2016-06-06T13:55:57.672Z,31.02
2016-06-06T13:56:57.674Z,31.6
2016-06-06T13:57:57.677Z,31.89
2016-06-06T13:58:57.694Z,31.5
2016-06-06T13:59:57.682Z,31.6
2016-06-06T14:00:57.700Z,31.31
2016-06-06T14:01:57.688Z,31.7
2016-06-06T14:02:57.691Z,31.89
2016-06-06T14:03:57.708Z,31.97
2016-06-06T14:04:57.696Z,31.39
2016-06-06T14:05:57.714Z,31.87
2016-06-06T14:06:57.717Z,32.26
2016-06-06T14:07:57.719Z,32.75
2016-06-06T14:08:57.722Z,32.65
2016-06-06T14:09:57.568Z,31.89
2016-06-06T14:10:57.727Z,31.7
2016-06-06T14:11:57.730Z,31.7
2016-06-06T14:12:57.890Z,31.99
2016-06-06T14:13:57.735Z,31.5
2016-06-06T14:14:57.613Z,31.41
2016-06-06T14:15:57.741Z,31.89
2016-06-06T14:16:57.760Z,32.47
2016-06-06T14:17:57.762Z,32.94
2016-06-06T14:18:57.764Z,32.56
2016-06-06T14:19:57.767Z,32.37
2016-06-06T14:20:57.770Z,32.86
2016-06-06T14:21:57.772Z,32.67
2016-06-06T14:22:57.791Z,31.99
2016-06-06T14:23:57.637Z,31.39
2016-06-06T14:24:57.781Z,32.56
2016-06-06T14:25:57.784Z,32.65
2016-06-06T14:26:57.802Z,32.73
2016-06-06T14:27:57.804Z,32.82
2016-06-06T14:28:57.808Z,33.02
2016-06-06T14:29:57.810Z,32.92
2016-06-06T14:30:57.812Z,32.82
2016-06-06T14:31:57.659Z,32.82
2016-06-06T14:32:57.818Z,32.73
2016-06-06T14:33:57.821Z,32.82
2016-06-06T14:34:57.823Z,32.64
2016-06-06T14:35:57.826Z,33.01
2016-06-06T14:36:57.829Z,33.02
2016-06-06T14:37:57.847Z,33.41
2016-06-06T14:38:57.834Z,34.09
2016-06-06T14:39:57.838Z,34.38
2016-06-06T14:40:57.855Z,34.77
2016-06-06T14:41:57.857Z,35.44
2016-06-06T14:42:57.845Z,35.25
2016-06-06T14:43:57.863Z,34.38
2016-06-06T14:44:57.866Z,34.09
2016-06-06T14:45:57.868Z,33.99
2016-06-06T14:46:57.871Z,33.99
2016-06-06T14:47:57.873Z,34.47
2016-06-06T14:48:57.877Z,34.19
2016-06-06T14:49:57.879Z,34.19
2016-06-06T14:50:57.881Z,34.19
2016-06-06T14:51:57.900Z,33.12
2016-06-06T14:52:57.887Z,33.14
2016-06-06T14:53:57.905Z,32.92
2016-06-06T14:54:57.908Z,33.42
2016-06-06T14:55:57.911Z,33.14
2016-06-06T14:56:57.914Z,33.14
2016-06-06T14:57:57.916Z,33.04
2016-06-06T14:58:57.920Z,33.42
2016-06-06T14:59:57.922Z,33.04
2016-06-06T15:00:57.925Z,32.84
2016-06-06T15:01:57.958Z,33.25
2016-06-06T15:02:57.930Z,32.28
2016-06-06T15:03:57.933Z,31.99
2016-06-06T15:04:57.950Z,31.87
2016-06-06T15:05:57.938Z,31.68
2016-06-06T15:06:57.972Z,31.87
2016-06-06T15:07:57.958Z,32.57
2016-06-06T15:08:57.962Z,32.57
2016-06-06T15:09:57.964Z,31.89
2016-06-06T15:10:57.966Z,31.7
2016-06-06T15:11:57.969Z,31.89
2016-06-06T15:12:57.972Z,31.99
2016-06-06T15:13:57.974Z,31.79
2016-06-06T15:14:58.165Z,31.99
2016-06-06T15:15:57.980Z,31.52
2016-06-06T15:16:57.982Z,31.52
2016-06-06T15:17:57.985Z,32.49
2016-06-06T15:18:57.988Z,31.81
2016-06-06T15:19:57.991Z,31.31
2016-06-06T15:20:58.010Z,31.89
2016-06-06T15:21:58.012Z,31.79
2016-06-06T15:22:58.015Z,31.79
2016-06-06T15:23:58.018Z,31.6
2016-06-06T15:24:58.021Z,30.73
2016-06-06T15:25:58.023Z,31.23
2016-06-06T15:26:58.041Z,31.71
2016-06-06T15:27:58.028Z,30.94
2016-06-06T15:28:58.031Z,31.04
2016-06-06T15:29:58.065Z,30.76
2016-06-06T15:30:58.537Z,30.84
2016-06-06T15:31:58.039Z,31.05
2016-06-06T15:32:58.042Z,31.24
2016-06-06T15:33:58.060Z,30.76
2016-06-06T15:34:58.048Z,31.05
2016-06-06T15:35:58.066Z,30.29
2016-06-06T15:36:58.069Z,30
2016-06-06T15:37:58.071Z,29.79
2016-06-06T15:38:58.074Z,30.27
2016-06-06T15:39:58.077Z,30.47
2016-06-06T15:40:58.079Z,30.76
2016-06-06T15:41:58.082Z,31.13
2016-06-06T15:42:58.084Z,31.62
2016-06-06T15:43:58.087Z,32
2016-06-06T15:44:58.308Z,31.89
2016-06-06T15:45:58.093Z,32.67
2016-06-06T15:46:58.111Z,32.96
2016-06-06T15:47:58.098Z,32.86
2016-06-06T15:48:58.116Z,33.62
2016-06-06T15:49:58.119Z,33.91
2016-06-06T15:50:58.122Z,33.99
2016-06-06T15:51:58.124Z,34.09
2016-06-06T15:52:58.127Z,34.28
2016-06-06T15:53:58.129Z,34.67
2016-06-06T15:54:58.148Z,34.96
2016-06-06T15:55:58.135Z,35.05
2016-06-06T15:56:57.981Z,34.94
2016-06-06T15:57:58.140Z,35.35
2016-06-06T15:58:58.159Z,35.54
2016-06-06T15:59:58.974Z,35.81
2016-06-06T16:00:58.148Z,35.81
2016-06-06T16:01:58.011Z,35.42
2016-06-06T16:02:58.170Z,36
2016-06-06T16:03:58.172Z,36.3
2016-06-06T16:04:58.175Z,36.2
2016-06-06T16:05:58.178Z,37.07
2016-06-06T16:06:58.196Z,37.15
2016-06-06T16:07:58.199Z,37.54
2016-06-06T16:08:58.186Z,37.63
2016-06-06T16:09:58.189Z,37.15
2016-06-06T16:10:58.191Z,37.55
2016-06-06T16:11:58.194Z,37.26
2016-06-06T16:12:58.353Z,37.07
2016-06-06T16:13:58.200Z,36.98
2016-06-06T16:14:58.343Z,36.68
2016-06-06T16:15:58.221Z,36.68
2016-06-06T16:16:58.223Z,36.4
2016-06-06T16:17:58.069Z,36.88
2016-06-06T16:18:58.229Z,37.07
2016-06-06T16:19:58.232Z,37.75
2016-06-06T16:20:58.280Z,37.46
2016-06-06T16:21:58.237Z,37.17
2016-06-06T16:22:58.240Z,36.98
2016-06-06T16:23:58.242Z,36.88
2016-06-06T16:24:58.245Z,35.91
2016-06-06T16:25:58.248Z,36.3
2016-06-06T16:26:58.250Z,36.68
2016-06-06T16:27:58.268Z,36.51
2016-06-06T16:28:58.256Z,35.93
2016-06-06T16:29:58.476Z,35.05
2016-06-06T16:30:58.261Z,35.05
2016-06-06T16:31:58.279Z,34.47
2016-06-06T16:32:58.281Z,34.57
2016-06-06T16:33:58.300Z,34.28
2016-06-06T16:34:58.287Z,34.19
2016-06-06T16:35:58.290Z,33.99
2016-06-06T16:36:58.292Z,34.09
2016-06-06T16:37:58.295Z,33.99
2016-06-06T16:38:58.298Z,34.19
2016-06-06T16:39:58.300Z,34.38
2016-06-06T16:40:58.303Z,34.96
2016-06-06T16:41:58.322Z,34.96
2016-06-06T16:42:58.313Z,35.44
2016-06-06T16:43:58.321Z,34.86
2016-06-06T16:44:58.344Z,34.67
2016-06-06T16:45:58.352Z,34.96
2016-06-06T16:46:58.344Z,34.96
2016-06-06T16:47:58.365Z,34.57
2016-06-06T16:48:58.213Z,34.86
2016-06-06T16:49:58.372Z,34.96
2016-06-06T16:50:58.377Z,34.77
2016-06-06T16:51:58.381Z,34.38
2016-06-06T16:52:58.385Z,35.35
2016-06-06T16:53:58.388Z,35.35
2016-06-06T16:54:58.392Z,35.25
2016-06-06T16:55:58.395Z,35.25
2016-06-06T16:56:58.243Z,35.15
2016-06-06T16:57:58.402Z,35.25
2016-06-06T16:58:58.419Z,35.15
2016-06-06T16:59:58.658Z,35.25
2016-06-06T17:00:58.411Z,35.44
2016-06-06T17:01:58.414Z,34.96
2016-06-06T17:02:58.417Z,35.25
2016-06-06T17:03:58.419Z,35.93
2016-06-06T17:04:58.437Z,35.54
2016-06-06T17:05:58.424Z,36.32
2016-06-06T17:06:58.443Z,36.24
2016-06-06T17:07:58.430Z,36.43
2016-06-06T17:08:58.433Z,36.24
2016-06-06T17:09:58.451Z,36.52
2016-06-06T17:10:58.297Z,36.52
2016-06-06T17:11:58.456Z,36.82
2016-06-06T17:12:58.459Z,36.91
2016-06-06T17:13:58.461Z,36.43
2016-06-06T17:14:58.464Z,35.66
2016-06-06T17:15:58.467Z,34.97
2016-06-06T17:16:58.469Z,34.97
2016-06-06T17:17:58.472Z,35.17
2016-06-06T17:18:58.475Z,35.17
2016-06-06T17:19:58.477Z,34.97
2016-06-06T17:20:58.480Z,35.36
2016-06-06T17:21:58.483Z,34.97
2016-06-06T17:22:58.486Z,34.78
2016-06-06T17:23:58.488Z,35.17
2016-06-06T17:24:58.507Z,34.69
2016-06-06T17:25:58.509Z,35.07
2016-06-06T17:26:58.512Z,35.17
2016-06-06T17:27:58.515Z,35.17
2016-06-06T17:28:58.517Z,35.27
2016-06-06T17:29:58.521Z,35.64
2016-06-06T17:30:58.523Z,35.15
2016-06-06T17:31:58.525Z,35.25
2016-06-06T17:32:58.529Z,35.64
2016-06-06T17:33:58.531Z,35.83
2016-06-06T17:34:58.377Z,35.83
2016-06-06T17:35:58.536Z,36.12
2016-06-06T17:36:58.539Z,35.83
2016-06-06T17:37:58.541Z,35.83
2016-06-06T17:38:58.545Z,35.93
2016-06-06T17:39:58.547Z,36.02
2016-06-06T17:40:58.565Z,36.32
2016-06-06T17:41:58.569Z,36.02
2016-06-06T17:42:58.571Z,35.93
2016-06-06T17:43:58.417Z,36.02
2016-06-06T17:44:58.576Z,36.12
2016-06-06T17:45:58.580Z,35.93
2016-06-06T17:46:58.582Z,36.12
2016-06-06T17:47:58.584Z,35.44
2016-06-06T17:48:58.588Z,35.94
2016-06-06T17:49:58.590Z,35.85
2016-06-06T17:50:58.592Z,35.75
2016-06-06T17:51:58.595Z,35.85
2016-06-06T17:52:58.598Z,35.07
2016-06-06T17:53:58.601Z,35.85
2016-06-06T17:54:58.603Z,36.62
2016-06-06T17:55:58.606Z,37.21
2016-06-06T17:56:58.609Z,38.17
2016-06-06T17:57:58.611Z,38.66
2016-06-06T17:58:58.614Z,39.53
2016-06-06T17:59:59.132Z,39.82
2016-06-06T18:00:58.635Z,39.92
2016-06-06T18:01:58.622Z,40.31
2016-06-06T18:02:58.625Z,41.08
2016-06-06T18:03:58.628Z,40.99
2016-06-06T18:04:58.630Z,41.37
2016-06-06T18:05:58.633Z,41.66
2016-06-06T18:06:58.651Z,41.95
2016-06-06T18:07:58.653Z,42.14
2016-06-06T18:08:58.656Z,42.34
2016-06-06T18:09:58.659Z,42.34
2016-06-06T18:10:58.661Z,42.54
2016-06-06T18:11:58.664Z,42.71
2016-06-06T18:12:58.917Z,42.63
2016-06-06T18:13:58.670Z,42.9
2016-06-06T18:14:58.797Z,42.63
2016-06-06T18:15:58.675Z,42.9
2016-06-06T18:16:58.678Z,42.82
2016-06-06T18:17:58.680Z,42.82
2016-06-06T18:18:58.683Z,43.31
2016-06-06T18:19:58.686Z,42.82
2016-06-06T18:20:58.689Z,43.09
2016-06-06T18:21:58.691Z,43.12
2016-06-06T18:22:58.710Z,43.38
2016-06-06T18:23:58.696Z,43.68
2016-06-06T18:24:58.716Z,44.16
2016-06-06T18:25:58.717Z,43.87
2016-06-06T18:26:58.720Z,44.45
2016-06-06T18:27:58.707Z,44.64
2016-06-06T18:28:58.726Z,44.84
2016-06-06T18:29:58.744Z,44.84
2016-06-06T18:30:58.576Z,45.03
2016-06-06T18:31:58.734Z,45.13
2016-06-06T18:32:58.736Z,44.74
2016-06-06T18:33:58.739Z,44.81
2016-06-06T18:34:58.742Z,44.91
2016-06-06T18:35:58.589Z,45.59
2016-06-06T18:36:58.591Z,46.17
2016-06-06T18:37:58.750Z,45.95
2016-06-06T18:38:58.769Z,46.05
2016-06-06T18:39:58.755Z,46.15
2016-06-06T18:40:58.758Z,46.44
2016-06-06T18:41:58.761Z,46.53
2016-06-06T18:42:58.763Z,46.25
2016-06-06T18:43:58.767Z,46.73
2016-06-06T18:44:58.878Z,46.61
2016-06-06T18:45:58.772Z,46.61
2016-06-06T18:46:58.774Z,46.61
2016-06-06T18:47:58.793Z,46.61
2016-06-06T18:48:58.796Z,46.32
2016-06-06T18:49:58.782Z,46.51
2016-06-06T18:50:58.785Z,46.39
2016-06-06T18:51:58.804Z,46.58
2016-06-06T18:52:58.791Z,46.49
2016-06-06T18:53:58.652Z,46.49
2016-06-06T18:54:58.811Z,46.58
2016-06-06T18:55:58.815Z,46.68
2016-06-06T18:56:58.817Z,46.78
2016-06-06T18:57:58.820Z,46.88
2016-06-06T18:58:58.666Z,46.95
2016-06-06T18:59:58.825Z,47.43
2016-06-06T19:00:58.811Z,47.33
2016-06-06T19:01:58.830Z,47.33
2016-06-06T19:02:58.833Z,47.81
2016-06-06T19:03:58.820Z,47.05
2016-06-06T19:04:58.838Z,47.53
2016-06-06T19:05:58.825Z,47.99
2016-06-06T19:06:58.844Z,48.57
2016-06-06T19:07:58.847Z,48.66
2016-06-06T19:09:01.099Z,48.95
2016-06-06T19:09:58.852Z,49.6
2016-06-06T19:10:58.855Z,49.9
2016-06-06T19:11:58.858Z,49.8
2016-06-06T19:12:58.860Z,50.28
2016-06-06T19:13:58.863Z,50.38
2016-06-06T19:14:58.880Z,50.57
2016-06-06T19:15:58.884Z,50.47
2016-06-06T19:16:58.871Z,51.05
2016-06-06T19:17:58.874Z,50.74
2016-06-06T19:18:58.876Z,50.67
2016-06-06T19:19:58.879Z,50.76
2016-06-06T19:20:58.882Z,50.93
2016-06-06T19:21:58.885Z,51.41
2016-06-06T19:22:58.887Z,51.32
2016-06-06T19:23:58.890Z,51.41
2016-06-06T19:24:58.892Z,51.7
2016-06-06T19:25:58.910Z,51.7
2016-06-06T19:26:58.898Z,52.09
2016-06-06T19:27:58.915Z,51.99
2016-06-06T19:28:58.903Z,52.28
2016-06-06T19:29:58.906Z,52.95
2016-06-06T19:30:58.909Z,52.45
2016-06-06T19:31:58.911Z,52.64
2016-06-06T19:32:58.914Z,53.05
2016-06-06T19:33:58.917Z,52.83
2016-06-06T19:34:58.778Z,53.61
2016-06-06T19:35:58.953Z,53.8
2016-06-06T19:36:58.925Z,54.57
2016-06-06T19:37:58.928Z,54.76
2016-06-06T19:38:58.930Z,54.86
2016-06-06T19:39:58.933Z,55.73
2016-06-06T19:40:58.936Z,55.82
2016-06-06T19:41:58.953Z,55.92
2016-06-06T19:42:58.941Z,55.92
2016-06-06T19:43:58.944Z,55.73
2016-06-06T19:44:58.946Z,55.73
2016-06-06T19:45:58.949Z,55.79
2016-06-06T19:46:58.952Z,55.24
2016-06-06T19:47:58.954Z,55.6
2016-06-06T19:48:58.972Z,55.12
2016-06-06T19:49:58.959Z,55.12
2016-06-06T19:50:58.962Z,55.12
2016-06-06T19:51:58.965Z,55.51
2016-06-06T19:52:58.983Z,55.7
2016-06-06T19:53:58.970Z,55.79
2016-06-06T19:54:58.973Z,55.99
2016-06-06T19:55:58.976Z,55.99
2016-06-06T19:56:58.979Z,56.18
2016-06-06T19:57:58.996Z,56.47
2016-06-06T19:58:58.984Z,56.76
2016-06-06T19:59:58.986Z,56.95
2016-06-06T20:00:58.989Z,57.05
2016-06-06T20:01:58.992Z,57.14
2016-06-06T20:02:58.994Z,57.05
2016-06-06T20:03:58.997Z,57.05
2016-06-06T20:04:59.329Z,56.85
2016-06-06T20:05:59.064Z,57.53
2016-06-06T20:06:59.006Z,57.34
2016-06-06T20:07:59.008Z,57.62
2016-06-06T20:08:59.011Z,57.53
2016-06-06T20:09:59.013Z,57.82
2016-06-06T20:10:59.016Z,57.53
2016-06-06T20:11:59.019Z,57.6
2016-06-06T20:12:59.161Z,57.5
2016-06-06T20:13:58.867Z,57.72
2016-06-06T20:14:59.027Z,57.62
2016-06-06T20:15:58.872Z,57.72
2016-06-06T20:16:59.032Z,57.92
2016-06-06T20:17:59.035Z,58.08
2016-06-06T20:18:59.038Z,58.37
2016-06-06T20:19:59.211Z,58.65
2016-06-06T20:20:58.934Z,58.65
2016-06-06T20:21:59.061Z,58.65
2016-06-06T20:22:59.048Z,58.37
2016-06-06T20:23:59.051Z,58.47
2016-06-06T20:24:59.054Z,58.47
2016-06-06T20:25:59.071Z,59.14
2016-06-06T20:26:59.059Z,58.85
2016-06-06T20:27:59.062Z,59.43
2016-06-06T20:28:59.065Z,59.62
2016-06-06T20:29:59.067Z,60.36
2016-06-06T20:30:59.070Z,60.17
2016-06-06T20:31:59.073Z,61.22
2016-06-06T20:32:59.076Z,62
2016-06-06T20:33:59.079Z,62.38
2016-06-06T20:34:59.081Z,62.57
2016-06-06T20:35:59.083Z,63.12
2016-06-06T20:36:59.086Z,63.22
2016-06-06T20:37:59.089Z,63.22
2016-06-06T20:38:59.091Z,63.7
2016-06-06T20:39:59.094Z,63.79
2016-06-06T20:40:59.081Z,64.47
2016-06-06T20:41:59.100Z,64.37
2016-06-06T20:42:59.102Z,64.86
2016-06-06T20:43:59.105Z,65.63
2016-06-06T20:44:59.107Z,65.24
2016-06-06T20:45:59.094Z,66.1
2016-06-06T20:46:59.113Z,66.78
2016-06-06T20:47:59.116Z,67.03
2016-06-06T20:48:59.118Z,67.32
2016-06-06T20:49:59.777Z,67.51
2016-06-06T20:50:59.591Z,67.51
2016-06-06T20:51:59.126Z,67.99
2016-06-06T20:52:59.129Z,68.09
2016-06-06T20:53:59.116Z,68.09
2016-06-06T20:54:59.134Z,68.09
2016-06-06T20:55:59.121Z,68.29
2016-06-06T20:56:59.140Z,68.09
2016-06-06T20:57:59.143Z,68.67
2016-06-06T20:58:59.129Z,68.96
2016-06-06T20:59:59.148Z,68.86
2016-06-06T21:00:59.151Z,68.96
2016-06-06T21:01:59.154Z,69.06
2016-06-06T21:02:59.141Z,68.96
2016-06-06T21:03:59.142Z,68.83
2016-06-06T21:04:59.348Z,69.15
2016-06-06T21:05:59.165Z,69.02
2016-06-06T21:06:59.151Z,69.4
2016-06-06T21:07:59.153Z,69.44
2016-06-06T21:08:59.172Z,69.44
2016-06-06T21:09:59.003Z,69.15
2016-06-06T21:10:59.162Z,69.15
2016-06-06T21:11:59.164Z,69.63
2016-06-06T21:12:59.167Z,69.53
2016-06-06T21:13:59.170Z,69.4
2016-06-06T21:14:59.173Z,69.63
2016-06-06T21:15:59.175Z,69.12
2016-06-06T21:16:59.178Z,69.69
2016-06-06T21:17:59.180Z,69.6
2016-06-06T21:18:59.168Z,69.5
2016-06-06T21:19:59.326Z,69.6
2016-06-06T21:20:59.188Z,69.5
2016-06-06T21:21:59.191Z,69.4
2016-06-06T21:22:59.194Z,69.5
2016-06-06T21:23:59.196Z,69.6
2016-06-06T21:24:59.183Z,69.4
2016-06-06T21:25:59.202Z,69.5
2016-06-06T21:26:59.205Z,69.21
2016-06-06T21:27:59.191Z,69.6
2016-06-06T21:28:59.194Z,69.6
2016-06-06T21:29:59.197Z,70.56
2016-06-06T21:30:59.199Z,69.98
2016-06-06T21:31:59.062Z,70.46
2016-06-06T21:32:59.204Z,70.84
2016-06-06T21:33:59.223Z,71.23
2016-06-06T21:34:59.226Z,71.04
2016-06-06T21:35:59.229Z,71.61
2016-06-06T21:36:59.215Z,72.38
2016-06-06T21:37:59.218Z,72.25
2016-06-06T21:38:59.221Z,72.16